createdAt,value
2022-11-09T00:00:39.999Z,18.98
2022-11-09T00:03:13.295Z,23.92
2022-11-09T00:05:54.817Z,20.70
2022-11-09T00:08:27.523Z,14.48
2022-11-09T00:11:03.407Z,17.15
2022-11-09T00:13:36.637Z,21.38
2022-11-09T00:16:12.341Z,19.45
2022-11-09T00:18:47.506Z,26.70
2022-11-09T00:21:21.245Z,21.13
2022-11-09T00:23:53.415Z,24.42
2022-11-09T00:26:26.305Z,28.35
2022-11-09T00:28:58.362Z,17.45
2022-11-09T00:31:31.718Z,19.40
2022-11-09T00:34:03.705Z,19.92
2022-11-09T00:36:35.684Z,16.33
2022-11-09T00:39:08.695Z,21.35
2022-11-09T00:41:40.641Z,23.08
2022-11-09T00:44:12.582Z,22.63
2022-11-09T00:46:45.968Z,23.30
2022-11-09T00:49:17.888Z,26.20
2022-11-09T00:51:49.959Z,19.92
2022-11-09T00:54:21.876Z,20.15
2022-11-09T00:56:53.954Z,28.25
2022-11-09T00:59:26.048Z,17.92
2022-11-09T01:01:59.349Z,17.73
2022-11-09T01:04:31.278Z,21.25
2022-11-09T01:07:07.020Z,22.52
2022-11-09T01:09:39.357Z,19.60
2022-11-09T01:12:11.331Z,26.50
2022-11-09T01:14:43.537Z,21.67
2022-11-09T01:17:16.849Z,19.55
2022-11-09T01:19:49.162Z,21.58
2022-11-09T01:22:21.119Z,20.10
2022-11-09T01:24:53.061Z,22.45
2022-11-09T01:27:25.004Z,21.30
2022-11-09T01:29:56.906Z,20.10
2022-11-09T01:32:33.217Z,20.73
2022-11-09T01:35:05.997Z,16.65
2022-11-09T01:37:38.015Z,23.42
2022-11-09T01:40:11.189Z,19.23
2022-11-09T01:42:43.650Z,22.83
2022-11-09T01:45:27.806Z,19.42
2022-11-09T01:48:04.812Z,21.88
2022-11-09T01:50:44.299Z,22.48
2022-11-09T01:53:19.807Z,18.77
2022-11-09T01:55:55.816Z,23.80
2022-11-09T01:58:30.794Z,21.63
2022-11-09T02:01:05.199Z,20.35
2022-11-09T02:03:44.264Z,25.33
2022-11-09T02:06:20.377Z,25.65
2022-11-09T02:08:55.767Z,25.83
2022-11-09T02:11:32.011Z,22.67
2022-11-09T02:14:05.905Z,23.35
2022-11-09T02:16:38.344Z,20.13
2022-11-09T02:19:12.336Z,20.60
2022-11-09T02:21:45.913Z,30.23
2022-11-09T02:24:18.731Z,26.67
2022-11-09T02:26:52.346Z,19.90
2022-11-09T02:29:28.376Z,28.77
2022-11-09T02:32:06.694Z,19.95
2022-11-09T02:34:39.174Z,24.27
2022-11-09T02:37:12.722Z,28.23
2022-11-09T02:39:44.671Z,22.77
2022-11-09T02:42:21.382Z,19.80
2022-11-09T02:44:58.743Z,19.27
2022-11-09T02:47:30.882Z,23.40
2022-11-09T02:50:03.882Z,21.27
2022-11-09T02:52:37.187Z,25.42
2022-11-09T02:55:09.741Z,23.23
2022-11-09T02:57:41.710Z,26.52
2022-11-09T03:00:16.942Z,22.23
2022-11-09T03:02:49.509Z,28.77
2022-11-09T03:05:21.658Z,24.33
2022-11-09T03:07:55.189Z,30.45
2022-11-09T03:10:27.812Z,26.60
2022-11-09T03:13:00.710Z,23.13
2022-11-09T03:15:32.698Z,23.40
2022-11-09T03:18:05.070Z,24.73
2022-11-09T03:20:36.989Z,18.63
2022-11-09T03:23:11.146Z,25.25
2022-11-09T03:25:44.617Z,22.50
2022-11-09T03:28:17.245Z,22.33
2022-11-09T03:30:49.659Z,23.98
2022-11-09T03:33:21.944Z,19.35
2022-11-09T03:35:54.131Z,24.85
2022-11-09T03:38:28.293Z,24.30
2022-11-09T03:41:01.985Z,24.67
2022-11-09T03:43:35.085Z,18.85
2022-11-09T03:46:07.029Z,26.30
2022-11-09T03:48:38.947Z,26.10
2022-11-09T03:51:10.883Z,22.48
2022-11-09T03:53:44.262Z,26.00
2022-11-09T03:56:16.216Z,20.80
2022-11-09T03:58:48.235Z,26.58
2022-11-09T04:01:20.242Z,28.23
2022-11-09T04:03:52.196Z,22.50
2022-11-09T04:06:24.133Z,20.33
2022-11-09T04:08:57.485Z,25.48
2022-11-09T04:11:29.363Z,21.35
2022-11-09T04:14:01.477Z,23.67
2022-11-09T04:16:33.406Z,21.58
2022-11-09T04:19:05.351Z,20.83
2022-11-09T04:21:37.345Z,32.40
2022-11-09T04:24:10.702Z,26.17
2022-11-09T04:26:42.590Z,29.13
2022-11-09T04:29:14.628Z,26.45
2022-11-09T04:31:48.723Z,22.45
2022-11-09T04:34:20.694Z,25.30
2022-11-09T04:36:52.794Z,25.45
2022-11-09T04:39:26.163Z,24.58
2022-11-09T04:41:58.068Z,22.65
2022-11-09T04:44:30.013Z,24.70
2022-11-09T04:47:01.977Z,25.70
2022-11-09T04:49:33.879Z,22.88
2022-11-09T04:52:05.860Z,24.30
2022-11-09T04:54:39.194Z,26.63
2022-11-09T04:57:11.090Z,24.70
2022-11-09T04:59:43.052Z,27.80
2022-11-09T05:02:14.986Z,21.83
2022-11-09T05:04:46.961Z,20.80
2022-11-09T05:07:18.986Z,22.27
2022-11-09T05:09:52.380Z,22.35
2022-11-09T05:12:24.262Z,20.27
2022-11-09T05:14:56.207Z,20.10
2022-11-09T05:17:28.158Z,18.45
2022-11-09T05:20:00.135Z,25.85
2022-11-09T05:22:50.521Z,22.42
2022-11-09T05:27:55.565Z,21.83
2022-11-09T05:30:27.529Z,21.48
2022-11-09T05:32:59.705Z,22.10
2022-11-09T05:35:32.727Z,19.08
2022-11-09T05:38:04.627Z,21.83
2022-11-09T05:40:37.944Z,27.05
2022-11-09T05:43:09.977Z,20.67
2022-11-09T05:45:43.894Z,21.33
2022-11-09T05:48:18.169Z,21.23
2022-11-09T05:50:50.092Z,20.13
2022-11-09T05:53:32.050Z,20.48
2022-11-09T05:56:08.375Z,22.73
2022-11-09T05:58:41.486Z,20.55
2022-11-09T06:01:15.789Z,21.42
2022-11-09T06:03:48.257Z,18.65
2022-11-09T06:06:20.197Z,20.67
2022-11-09T06:08:52.258Z,18.02
2022-11-09T06:11:25.574Z,17.45
2022-11-09T06:13:57.515Z,19.48
2022-11-09T06:16:29.462Z,19.27
2022-11-09T06:19:01.892Z,18.38
2022-11-09T06:21:33.834Z,21.98
2022-11-09T06:24:06.338Z,24.08
2022-11-09T06:26:39.632Z,22.17
2022-11-09T06:29:11.541Z,20.45
2022-11-09T06:31:43.463Z,19.58
2022-11-09T06:34:15.664Z,17.35
2022-11-09T06:36:47.552Z,20.00
2022-11-09T06:39:19.509Z,21.95
2022-11-09T06:41:52.812Z,20.52
2022-11-09T06:44:24.875Z,19.90
2022-11-09T06:46:56.733Z,19.73
2022-11-09T06:49:28.766Z,22.95
2022-11-09T06:52:00.683Z,18.30
2022-11-09T06:54:33.811Z,21.80
2022-11-09T06:57:07.231Z,17.70
2022-11-09T06:59:39.243Z,15.93
2022-11-09T07:02:14.931Z,20.27
2022-11-09T07:04:46.858Z,19.40
2022-11-09T07:07:22.326Z,17.38
2022-11-09T07:09:57.504Z,18.92
2022-11-09T07:12:31.298Z,21.08
2022-11-09T07:15:04.937Z,20.00
2022-11-09T07:17:39.164Z,20.33
2022-11-09T07:20:12.111Z,15.75
2022-11-09T07:22:44.096Z,16.73
2022-11-09T07:25:16.208Z,16.85
2022-11-09T07:27:49.678Z,20.40
2022-11-09T07:30:21.746Z,19.60
2022-11-09T07:33:08.686Z,17.17
2022-11-09T07:35:42.111Z,18.70
2022-11-09T07:38:16.007Z,17.73
2022-11-09T07:40:47.952Z,19.92
2022-11-09T07:43:21.489Z,23.27
2022-11-09T07:45:57.942Z,18.48
2022-11-09T07:48:29.880Z,15.20
2022-11-09T07:51:02.057Z,20.02
2022-11-09T07:53:34.021Z,14.80
2022-11-09T07:56:06.645Z,17.33
2022-11-09T07:58:40.085Z,18.30
2022-11-09T08:01:12.471Z,16.02
2022-11-09T08:03:44.510Z,16.08
2022-11-09T08:06:18.585Z,12.93
2022-11-09T08:08:50.982Z,17.10
2022-11-09T08:11:23.059Z,15.90
2022-11-09T08:13:56.839Z,13.30
2022-11-09T08:16:31.097Z,16.00
2022-11-09T08:19:08.987Z,16.48
2022-11-09T08:21:41.004Z,13.45
2022-11-09T08:24:12.908Z,17.88
2022-11-09T08:26:44.815Z,16.85
2022-11-09T08:29:18.177Z,15.10
2022-11-09T08:31:50.873Z,17.38
2022-11-09T08:34:22.966Z,18.88
2022-11-09T08:36:54.897Z,15.60
2022-11-09T08:39:26.871Z,12.18
2022-11-09T08:41:58.796Z,13.02
2022-11-09T08:44:32.160Z,16.40
2022-11-09T08:47:04.146Z,14.95
2022-11-09T08:49:36.100Z,13.85
2022-11-09T08:52:08.151Z,11.73
2022-11-09T08:54:40.085Z,13.90
2022-11-09T08:57:12.151Z,11.18
2022-11-09T08:59:46.078Z,14.18
2022-11-09T09:02:18.150Z,13.93
2022-11-09T09:04:50.209Z,15.57
2022-11-09T09:07:22.216Z,13.02
2022-11-09T09:09:54.239Z,12.85
2022-11-09T09:12:26.274Z,14.63
2022-11-09T09:14:59.574Z,13.65
2022-11-09T09:17:31.985Z,12.75
2022-11-09T09:20:04.755Z,10.88
2022-11-09T09:22:36.868Z,11.65
2022-11-09T09:25:09.483Z,18.45
2022-11-09T09:27:43.710Z,17.25
2022-11-09T09:30:17.727Z,20.05
2022-11-09T09:32:49.668Z,20.85
2022-11-09T09:35:21.667Z,11.80
2022-11-09T09:37:53.742Z,15.43
2022-11-09T09:40:31.835Z,13.80
2022-11-09T09:43:04.047Z,10.98
2022-11-09T09:45:50.272Z,14.02
2022-11-09T09:48:39.617Z,13.48
2022-11-09T09:51:17.162Z,13.05
2022-11-09T09:53:54.458Z,11.75
2022-11-09T09:56:31.171Z,10.63
2022-11-09T09:59:11.578Z,14.00
2022-11-09T10:04:21.579Z,12.35
2022-11-09T10:07:03.859Z,16.08
2022-11-09T10:09:53.014Z,14.30
2022-11-09T10:12:33.490Z,12.60
2022-11-09T10:18:06.152Z,11.80
2022-11-09T10:20:59.192Z,13.27
2022-11-09T10:23:43.879Z,11.90
2022-11-09T10:26:19.392Z,12.82
2022-11-09T10:29:15.219Z,14.90
2022-11-09T10:31:50.460Z,14.20
2022-11-09T10:34:27.548Z,12.30
2022-11-09T10:37:07.163Z,13.48
2022-11-09T10:39:47.549Z,17.00
2022-11-09T10:42:37.919Z,14.63
2022-11-09T10:45:30.949Z,10.13
2022-11-09T10:48:32.327Z,14.43
2022-11-09T10:51:38.543Z,16.40
2022-11-09T10:54:32.480Z,17.35
2022-11-09T10:57:24.280Z,15.55
2022-11-09T11:00:17.117Z,13.80
2022-11-09T11:03:15.852Z,14.45
2022-11-09T11:06:07.786Z,13.35
2022-11-09T11:12:14.892Z,15.70
2022-11-09T11:15:21.679Z,7.43
2022-11-09T11:18:17.745Z,13.13
2022-11-09T11:21:18.483Z,13.05
2022-11-09T11:24:15.919Z,19.83
2022-11-09T11:27:14.274Z,12.95
2022-11-09T11:30:11.894Z,15.40
2022-11-09T11:33:06.245Z,14.85
2022-11-09T11:36:02.454Z,12.35
2022-11-09T11:39:01.649Z,14.63
2022-11-09T11:42:14.660Z,17.23
2022-11-09T11:45:39.618Z,15.25
2022-11-09T11:48:55.316Z,18.40
2022-11-09T11:51:56.167Z,11.55
2022-11-09T11:55:04.637Z,14.65
2022-11-09T11:58:18.120Z,12.23
2022-11-09T12:01:24.209Z,15.52
2022-11-09T12:04:32.092Z,15.63
2022-11-09T12:07:34.688Z,15.93
2022-11-09T12:10:38.550Z,14.57
2022-11-09T12:13:49.450Z,13.38
2022-11-09T12:16:48.367Z,13.18
2022-11-09T12:19:58.802Z,16.45
2022-11-09T12:23:01.339Z,16.45
2022-11-09T12:25:58.878Z,13.40
2022-11-09T12:29:07.726Z,23.35
2022-11-09T12:32:12.341Z,13.98
2022-11-09T12:35:21.840Z,13.75
2022-11-09T12:38:17.004Z,14.40
2022-11-09T12:41:13.642Z,16.83
2022-11-09T12:44:16.886Z,11.85
2022-11-09T12:47:15.492Z,13.88
2022-11-09T12:50:06.610Z,12.75
2022-11-09T12:52:57.237Z,13.68
2022-11-09T12:58:40.573Z,16.27
2022-11-09T13:01:48.095Z,12.27
2022-11-09T13:04:38.655Z,15.38
2022-11-09T13:07:49.862Z,16.55
2022-11-09T13:10:41.092Z,20.10
2022-11-09T13:13:31.471Z,22.10
2022-11-09T13:16:34.640Z,21.42
2022-11-09T13:19:54.167Z,15.75
2022-11-09T13:23:02.561Z,17.17
2022-11-09T13:25:53.417Z,15.77
2022-11-09T13:29:05.095Z,14.20
2022-11-09T13:32:01.430Z,21.02
2022-11-09T13:34:54.820Z,16.30
2022-11-09T13:37:56.723Z,17.55
2022-11-09T13:40:48.565Z,18.00
2022-11-09T13:43:40.662Z,17.35
2022-11-09T13:46:38.249Z,19.33
2022-11-09T13:49:45.792Z,18.02
2022-11-09T13:52:59.217Z,17.35
2022-11-09T13:55:49.954Z,17.83
2022-11-09T13:58:41.574Z,19.60
2022-11-09T14:01:37.994Z,16.65
2022-11-09T14:04:30.833Z,18.52
2022-11-09T14:07:24.164Z,22.40
2022-11-09T14:10:23.976Z,16.90
2022-11-09T14:13:47.472Z,19.65
2022-11-09T14:16:47.722Z,23.48
2022-11-09T14:19:48.370Z,20.33
2022-11-09T14:22:40.855Z,20.95
2022-11-09T14:25:36.528Z,22.10
2022-11-09T14:28:28.471Z,18.70
2022-11-09T14:31:28.241Z,18.60
2022-11-09T14:34:18.714Z,22.00
2022-11-09T14:37:11.673Z,31.83
2022-11-09T14:40:02.482Z,23.45
2022-11-09T14:45:49.636Z,24.85
2022-11-09T14:48:44.848Z,24.17
2022-11-09T14:51:39.229Z,24.27
2022-11-09T14:54:30.044Z,20.48
2022-11-09T14:57:23.057Z,21.75
2022-11-09T15:00:31.506Z,25.98
2022-11-09T15:03:27.250Z,28.65
2022-11-09T15:06:18.144Z,24.95
2022-11-09T15:09:14.720Z,22.67
2022-11-09T15:12:14.346Z,23.98
2022-11-09T15:15:07.215Z,20.00
2022-11-09T15:17:59.978Z,23.25
2022-11-09T15:21:10.278Z,24.17
2022-11-09T15:24:14.412Z,31.10
2022-11-09T15:27:28.539Z,38.22
2022-11-09T15:30:34.331Z,29.63
2022-11-09T15:33:29.803Z,31.55
2022-11-09T15:36:24.668Z,34.80
2022-11-09T15:39:17.640Z,28.35
2022-11-09T15:42:10.630Z,27.23
2022-11-09T15:45:01.317Z,32.92
2022-11-09T15:47:54.010Z,33.38
2022-11-09T15:50:46.248Z,27.23
2022-11-09T15:53:36.572Z,32.50
2022-11-09T15:56:26.840Z,27.35
2022-11-09T15:59:21.025Z,27.63
2022-11-09T16:02:12.196Z,31.30
2022-11-09T16:05:02.318Z,23.05
2022-11-09T16:07:55.040Z,26.85
2022-11-09T16:10:45.762Z,35.83
2022-11-09T16:13:36.741Z,28.48
2022-11-09T16:16:27.503Z,25.15
2022-11-09T16:19:17.680Z,30.05
2022-11-09T16:22:08.545Z,26.25
2022-11-09T16:25:00.367Z,28.10
2022-11-09T16:27:51.529Z,32.25
2022-11-09T16:30:46.544Z,26.38
2022-11-09T16:33:37.265Z,33.83
2022-11-09T16:36:28.715Z,39.85
2022-11-09T16:39:19.237Z,36.63
2022-11-09T16:42:13.205Z,28.67
2022-11-09T16:45:07.239Z,30.88
2022-11-09T16:47:57.574Z,31.15
2022-11-09T16:50:48.758Z,25.23
2022-11-09T16:53:39.050Z,29.35
2022-11-09T16:56:29.136Z,31.58
2022-11-09T16:59:20.825Z,27.77
2022-11-09T17:02:11.086Z,29.77
2022-11-09T17:05:01.841Z,26.92
2022-11-09T17:10:44.053Z,39.13
2022-11-09T17:13:34.296Z,38.88
2022-11-09T17:19:16.454Z,27.08
2022-11-09T17:22:08.026Z,23.25
2022-11-09T17:24:58.525Z,22.05
2022-11-09T17:27:49.071Z,21.83
2022-11-09T17:30:41.914Z,28.45
2022-11-09T17:33:33.822Z,22.83
2022-11-09T17:36:41.902Z,22.80
2022-11-09T17:42:25.183Z,24.20
2022-11-09T17:45:16.185Z,26.58
2022-11-09T17:48:07.523Z,22.67
2022-11-09T17:51:00.035Z,30.40
2022-11-09T17:53:50.437Z,32.95
2022-11-09T17:56:41.142Z,43.67
2022-11-09T17:59:31.265Z,28.40
2022-11-09T18:02:21.558Z,24.25
2022-11-09T18:05:11.821Z,24.08
2022-11-09T18:08:04.146Z,24.75
2022-11-09T18:10:57.021Z,26.48
2022-11-09T18:13:49.004Z,30.17
2022-11-09T18:16:39.463Z,26.38
2022-11-09T18:19:29.848Z,35.60
2022-11-09T18:22:20.090Z,35.40
2022-11-09T18:25:12.334Z,40.42
2022-11-09T18:28:03.345Z,24.77
2022-11-09T18:30:59.846Z,31.95
2022-11-09T18:33:50.557Z,25.27
2022-11-09T18:36:41.703Z,28.58
2022-11-09T18:39:32.307Z,23.42
2022-11-09T18:45:14.462Z,30.83
2022-11-09T18:48:05.185Z,23.88
2022-11-09T18:50:57.219Z,27.35
2022-11-09T18:53:48.547Z,30.45
2022-11-09T18:56:39.180Z,25.83
2022-11-09T18:59:30.758Z,31.52
2022-11-09T19:02:21.517Z,39.53
2022-11-09T19:05:11.878Z,34.90
2022-11-09T19:08:02.063Z,44.80
2022-11-09T19:10:52.237Z,32.58
2022-11-09T19:13:42.565Z,29.55
2022-11-09T19:19:27.107Z,28.60
2022-11-09T19:22:19.192Z,29.60
2022-11-09T19:25:09.624Z,33.53
2022-11-09T19:27:59.850Z,53.25
2022-11-09T19:30:50.082Z,69.18
2022-11-09T19:33:42.181Z,71.80
2022-11-09T19:36:33.783Z,37.08
2022-11-09T19:39:27.318Z,41.80
2022-11-09T19:42:21.592Z,42.53
2022-11-09T19:45:12.740Z,32.15
2022-11-09T19:48:03.460Z,55.83
2022-11-09T19:53:49.053Z,40.83
2022-11-09T19:56:39.606Z,36.50
2022-11-09T19:59:29.859Z,39.05
2022-11-09T20:02:20.196Z,34.05
2022-11-09T20:08:04.342Z,37.70
2022-11-09T20:10:55.081Z,40.10
2022-11-09T20:13:45.587Z,43.83
2022-11-09T20:19:26.986Z,49.15
2022-11-09T20:22:17.285Z,47.28
2022-11-09T20:25:09.804Z,43.17
2022-11-09T20:27:59.966Z,37.00
2022-11-09T20:30:50.139Z,36.08
2022-11-09T20:33:40.472Z,37.17
2022-11-09T20:36:31.178Z,35.83
2022-11-09T20:39:21.331Z,36.55
2022-11-09T20:42:13.230Z,33.47
2022-11-09T20:45:04.723Z,39.22
2022-11-09T20:48:10.661Z,41.65
2022-11-09T20:51:06.227Z,31.58
2022-11-09T20:53:56.565Z,43.50
2022-11-09T20:59:39.006Z,38.53
2022-11-09T21:02:29.340Z,39.55
2022-11-09T21:05:19.652Z,49.53
2022-11-09T21:11:01.220Z,40.17
2022-11-09T21:13:52.760Z,44.67
2022-11-09T21:16:44.650Z,45.00
2022-11-09T21:19:35.109Z,47.55
2022-11-09T21:25:55.365Z,44.25
2022-11-09T21:29:04.493Z,48.50
2022-11-09T21:31:56.478Z,46.88
2022-11-09T21:34:47.541Z,47.63
2022-11-09T21:37:37.888Z,40.55
2022-11-09T21:40:28.383Z,41.10
2022-11-09T21:46:09.074Z,43.13
2022-11-09T21:49:00.657Z,44.42
2022-11-09T21:51:51.571Z,45.30
2022-11-09T21:54:41.847Z,43.45
2022-11-09T21:57:32.454Z,42.75
2022-11-09T22:00:22.674Z,40.72
2022-11-09T22:03:12.958Z,44.65
2022-11-09T22:08:55.353Z,43.08
2022-11-09T22:15:13.487Z,40.05
2022-11-09T22:18:04.145Z,46.25
2022-11-09T22:20:56.460Z,41.22
2022-11-09T22:23:48.277Z,45.38
2022-11-09T22:26:39.125Z,46.85
2022-11-09T22:32:19.896Z,40.55
2022-11-09T22:35:10.202Z,38.50
2022-11-09T22:38:02.004Z,45.58
2022-11-09T22:40:54.043Z,37.85
2022-11-09T22:43:44.857Z,50.40
2022-11-09T22:46:35.501Z,45.72
2022-11-09T22:49:26.201Z,47.97
2022-11-09T22:52:18.035Z,45.10
2022-11-09T22:55:09.740Z,46.30
2022-11-09T22:58:01.527Z,48.92
2022-11-09T23:00:52.497Z,44.83
2022-11-09T23:03:43.379Z,41.08
2022-11-09T23:06:34.120Z,48.67
2022-11-09T23:09:24.689Z,45.70
2022-11-09T23:12:15.241Z,39.00
2022-11-09T23:15:13.205Z,47.83
2022-11-09T23:18:22.761Z,48.20
2022-11-09T23:21:14.210Z,50.78
2022-11-09T23:24:06.845Z,47.88
2022-11-09T23:26:57.679Z,46.72
2022-11-09T23:29:48.071Z,48.35
2022-11-09T23:32:39.598Z,49.80
2022-11-09T23:35:29.869Z,50.75
2022-11-09T23:38:20.264Z,46.78
2022-11-09T23:44:01.243Z,46.83
2022-11-09T23:46:52.094Z,51.88
2022-11-09T23:49:43.788Z,43.25
2022-11-09T23:52:34.583Z,51.80
2022-11-09T23:55:25.637Z,50.13
2022-11-09T23:58:15.923Z,42.55
